sensor_id;sensor_type;location;lat;lon;timestamp;pressure;altitude;pressure_sealevel;temperature;humidity
35507;BME280;36461;52.018;21.036;2023-03-13T20:30:39;98912.20;;;10.14;73.03
35507;BME280;36461;52.018;21.036;2023-03-13T20:33:10;98906.24;;;10.13;73.19
35507;BME280;36461;52.018;21.036;2023-03-13T20:35:39;98901.45;;;10.12;72.98
35507;BME280;36461;52.018;21.036;2023-03-13T20:38:06;98897.54;;;10.11;73.20
35507;BME280;36461;52.018;21.036;2023-03-13T20:40:34;98892.48;;;10.05;73.43
35507;BME280;36461;52.018;21.036;2023-03-13T20:43:02;98894.27;;;10.01;73.36
35507;BME280;36461;52.018;21.036;2023-03-13T20:45:31;98892.12;;;9.99;73.07
35507;BME280;36461;52.018;21.036;2023-03-13T20:47:59;98896.00;;;10.01;73.00
35507;BME280;36461;52.018;21.036;2023-03-13T20:50:27;98892.17;;;10.01;73.11
35507;BME280;36461;52.018;21.036;2023-03-13T20:52:55;98890.25;;;10.02;72.87
35507;BME280;36461;52.018;21.036;2023-03-13T20:55:23;98892.97;;;10.03;72.70
35507;BME280;36461;52.018;21.036;2023-03-13T20:57:51;98897.40;;;10.04;72.86
35507;BME280;36461;52.018;21.036;2023-03-13T21:00:21;98894.15;;;10.03;72.77
35507;BME280;36461;52.018;21.036;2023-03-13T21:02:50;98899.17;;;10.03;72.57
35507;BME280;36461;52.018;21.036;2023-03-13T21:05:20;98897.50;;;10.02;72.71
35507;BME280;36461;52.018;21.036;2023-03-13T21:07:49;98893.27;;;10.01;72.64
35507;BME280;36461;52.018;21.036;2023-03-13T21:10:18;98891.30;;;9.98;72.77
35507;BME280;36461;52.018;21.036;2023-03-13T21:12:46;98892.95;;;9.97;72.70
35507;BME280;36461;52.018;21.036;2023-03-13T21:15:14;98887.45;;;9.96;72.93
35507;BME280;36461;52.018;21.036;2023-03-13T21:17:42;98880.45;;;9.95;72.77
35507;BME280;36461;52.018;21.036;2023-03-13T21:20:10;98878.88;;;9.95;72.60
35507;BME280;36461;52.018;21.036;2023-03-13T21:22:40;98875.23;;;9.95;72.85
35507;BME280;36461;52.018;21.036;2023-03-13T21:25:10;98870.11;;;9.94;72.72
35507;BME280;36461;52.018;21.036;2023-03-13T21:27:38;98864.41;;;9.91;72.71
35507;BME280;36461;52.018;21.036;2023-03-13T21:30:08;98867.67;;;9.88;72.76
35507;BME280;36461;52.018;21.036;2023-03-13T21:32:39;98864.83;;;9.86;72.87
35507;BME280;36461;52.018;21.036;2023-03-13T21:35:08;98868.91;;;9.84;72.69
35507;BME280;36461;52.018;21.036;2023-03-13T21:37:37;98867.82;;;9.82;73.20
35507;BME280;36461;52.018;21.036;2023-03-13T21:40:06;98867.92;;;9.79;72.83
35507;BME280;36461;52.018;21.036;2023-03-13T21:42:35;98871.52;;;9.77;72.79
35507;BME280;36461;52.018;21.036;2023-03-13T21:45:05;98873.13;;;9.76;72.83
35507;BME280;36461;52.018;21.036;2023-03-13T21:47:34;98870.38;;;9.76;72.60
35507;BME280;36461;52.018;21.036;2023-03-13T21:50:07;98867.08;;;9.76;72.81
35507;BME280;36461;52.018;21.036;2023-03-13T21:52:36;98856.41;;;9.76;72.63
35507;BME280;36461;52.018;21.036;2023-03-13T21:55:11;98852.98;;;9.75;72.85
35507;BME280;36461;52.018;21.036;2023-03-13T21:57:39;98839.98;;;9.69;72.62
35507;BME280;36461;52.018;21.036;2023-03-13T22:00:08;98845.23;;;9.65;72.84
35507;BME280;36461;52.018;21.036;2023-03-13T22:02:37;98845.25;;;9.64;72.63
35507;BME280;36461;52.018;21.036;2023-03-13T22:05:06;98839.96;;;9.66;72.74
35507;BME280;36461;52.018;21.036;2023-03-13T22:07:35;98837.63;;;9.68;72.75
35507;BME280;36461;52.018;21.036;2023-03-13T22:10:04;98832.36;;;9.69;72.79
35507;BME280;36461;52.018;21.036;2023-03-13T22:12:32;98827.64;;;9.71;72.69
35507;BME280;36461;52.018;21.036;2023-03-13T22:15:00;98824.70;;;9.71;72.52
35507;BME280;36461;52.018;21.036;2023-03-13T22:17:28;98823.88;;;9.70;72.50
35507;BME280;36461;52.018;21.036;2023-03-13T22:19:56;98823.45;;;9.68;72.60
35507;BME280;36461;52.018;21.036;2023-03-13T22:22:25;98819.50;;;9.64;72.90
35507;BME280;36461;52.018;21.036;2023-03-13T22:24:52;98818.60;;;9.62;72.72
35507;BME280;36461;52.018;21.036;2023-03-13T22:27:20;98818.53;;;9.60;72.70
35507;BME280;36461;52.018;21.036;2023-03-13T22:29:50;98823.45;;;9.58;73.25
35507;BME280;36461;52.018;21.036;2023-03-13T22:32:18;98823.80;;;9.58;72.97
35507;BME280;36461;52.018;21.036;2023-03-13T22:34:47;98823.60;;;9.58;73.05
35507;BME280;36461;52.018;21.036;2023-03-13T22:37:15;98819.37;;;9.61;73.13
35507;BME280;36461;52.018;21.036;2023-03-13T22:39:43;98820.52;;;9.62;73.16
35507;BME280;36461;52.018;21.036;2023-03-13T22:42:11;98816.66;;;9.63;73.31
35507;BME280;36461;52.018;21.036;2023-03-13T22:44:39;98825.94;;;9.64;73.24
35507;BME280;36461;52.018;21.036;2023-03-13T22:47:07;98825.11;;;9.63;73.12
35507;BME280;36461;52.018;21.036;2023-03-13T22:49:35;98824.98;;;9.59;73.21
35507;BME280;36461;52.018;21.036;2023-03-13T22:52:03;98820.16;;;9.52;72.98
35507;BME280;36461;52.018;21.036;2023-03-13T22:54:31;98808.88;;;9.43;72.85
35507;BME280;36461;52.018;21.036;2023-03-13T22:56:59;98808.48;;;9.31;72.89
35507;BME280;36461;52.018;21.036;2023-03-13T22:59:27;98801.77;;;9.20;73.04
35507;BME280;36461;52.018;21.036;2023-03-13T23:01:55;98802.21;;;9.09;73.20
35507;BME280;36461;52.018;21.036;2023-03-13T23:04:23;98797.36;;;8.99;73.24
35507;BME280;36461;52.018;21.036;2023-03-13T23:06:51;98792.38;;;8.88;73.43
35507;BME280;36461;52.018;21.036;2023-03-13T23:09:19;98793.55;;;8.78;73.71
35507;BME280;36461;52.018;21.036;2023-03-13T23:11:47;98790.86;;;8.70;73.65
35507;BME280;36461;52.018;21.036;2023-03-13T23:14:14;98791.82;;;8.65;73.60
35507;BME280;36461;52.018;21.036;2023-03-13T23:16:43;98789.72;;;8.59;73.94
35507;BME280;36461;52.018;21.036;2023-03-13T23:19:11;98793.79;;;8.53;73.83
35507;BME280;36461;52.018;21.036;2023-03-13T23:21:38;98794.38;;;8.48;73.92
35507;BME280;36461;52.018;21.036;2023-03-13T23:24:07;98797.47;;;8.40;74.18
35507;BME280;36461;52.018;21.036;2023-03-13T23:26:35;98800.20;;;8.34;74.13
35507;BME280;36461;52.018;21.036;2023-03-13T23:29:04;98795.51;;;8.28;74.20
35507;BME280;36461;52.018;21.036;2023-03-13T23:31:31;98795.55;;;8.23;74.38
35507;BME280;36461;52.018;21.036;2023-03-13T23:34:01;98798.23;;;8.17;74.44
35507;BME280;36461;52.018;21.036;2023-03-13T23:36:29;98796.52;;;8.10;74.40
35507;BME280;36461;52.018;21.036;2023-03-13T23:38:56;98792.65;;;8.04;74.59
35507;BME280;36461;52.018;21.036;2023-03-13T23:41:26;98787.51;;;8.00;74.56
35507;BME280;36461;52.018;21.036;2023-03-13T23:43:54;98779.78;;;7.96;74.72
35507;BME280;36461;52.018;21.036;2023-03-13T23:46:23;98773.27;;;7.91;74.68
35507;BME280;36461;52.018;21.036;2023-03-13T23:48:56;98772.12;;;7.86;75.04
35507;BME280;36461;52.018;21.036;2023-03-13T23:51:24;98772.00;;;7.81;75.00
35507;BME280;36461;52.018;21.036;2023-03-13T23:53:52;98773.56;;;7.77;74.93
35507;BME280;36461;52.018;21.036;2023-03-13T23:56:20;98772.06;;;7.73;75.05
35507;BME280;36461;52.018;21.036;2023-03-13T23:58:48;98770.16;;;7.66;75.11
